sensor_id;sensor_type;location;lat;lon;timestamp;pressure;altitude;pressure_sealevel;temperature;humidity
50368;BME280;36281;34.132;-118.018;2023-06-22T00:01:29;99828.91;;;28.13;32.39
50368;BME280;36281;34.132;-118.018;2023-06-22T00:03:59;99829.69;;;28.13;32.02
50368;BME280;36281;34.132;-118.018;2023-06-22T00:06:30;99831.97;;;28.11;32.04
50368;BME280;36281;34.132;-118.018;2023-06-22T00:08:59;99826.03;;;28.09;33.02
50368;BME280;36281;34.132;-118.018;2023-06-22T00:11:28;99823.78;;;28.11;32.09
50368;BME280;36281;34.132;-118.018;2023-06-22T00:13:57;99808.91;;;28.08;31.76
50368;BME280;36281;34.132;-118.018;2023-06-22T00:16:34;99804.00;;;28.02;31.47
50368;BME280;36281;34.132;-118.018;2023-06-22T00:19:03;99809.97;;;27.95;31.88
50368;BME280;36281;34.132;-118.018;2023-06-22T00:21:33;99807.28;;;27.87;31.96
50368;BME280;36281;34.132;-118.018;2023-06-22T00:24:03;99803.16;;;27.80;31.84
50368;BME280;36281;34.132;-118.018;2023-06-22T00:26:35;99806.53;;;27.69;33.19
50368;BME280;36281;34.132;-118.018;2023-06-22T00:29:04;99808.44;;;27.77;32.83
50368;BME280;36281;34.132;-118.018;2023-06-22T00:31:39;99804.78;;;27.73;32.10
50368;BME280;36281;34.132;-118.018;2023-06-22T00:34:08;99806.78;;;27.55;32.66
50368;BME280;36281;34.132;-118.018;2023-06-22T00:36:40;99786.66;;;27.39;31.95
50368;BME280;36281;34.132;-118.018;2023-06-22T00:39:09;99805.03;;;27.50;31.72
50368;BME280;36281;34.132;-118.018;2023-06-22T00:41:38;99803.66;;;27.27;32.68
50368;BME280;36281;34.132;-118.018;2023-06-22T00:44:07;99805.06;;;27.33;32.62
50368;BME280;36281;34.132;-118.018;2023-06-22T00:46:38;99799.97;;;27.31;32.72
50368;BME280;36281;34.132;-118.018;2023-06-22T00:49:08;99801.09;;;27.30;32.39
50368;BME280;36281;34.132;-118.018;2023-06-22T00:51:37;99793.13;;;27.25;32.46
50368;BME280;36281;34.132;-118.018;2023-06-22T00:54:06;99790.28;;;26.87;33.54
50368;BME280;36281;34.132;-118.018;2023-06-22T00:56:35;99786.72;;;27.04;33.04
50368;BME280;36281;34.132;-118.018;2023-06-22T00:59:06;99780.19;;;26.96;33.61
50368;BME280;36281;34.132;-118.018;2023-06-22T01:01:35;99793.47;;;26.98;32.66
50368;BME280;36281;34.132;-118.018;2023-06-22T01:04:11;99789.78;;;26.94;32.74
50368;BME280;36281;34.132;-118.018;2023-06-22T01:06:47;99782.94;;;26.88;32.92
50368;BME280;36281;34.132;-118.018;2023-06-22T01:09:24;99787.41;;;26.84;33.00
50368;BME280;36281;34.132;-118.018;2023-06-22T01:11:59;99793.03;;;26.61;33.97
50368;BME280;36281;34.132;-118.018;2023-06-22T01:14:37;99778.31;;;26.71;33.52
50368;BME280;36281;34.132;-118.018;2023-06-22T01:17:08;99777.50;;;26.70;33.28
50368;BME280;36281;34.132;-118.018;2023-06-22T01:19:46;99784.22;;;26.64;33.87
50368;BME280;36281;34.132;-118.018;2023-06-22T01:22:17;99781.03;;;26.62;33.53
50368;BME280;36281;34.132;-118.018;2023-06-22T01:24:55;99785.50;;;26.58;33.43
50368;BME280;36281;34.132;-118.018;2023-06-22T01:27:35;99787.91;;;26.51;33.53
50368;BME280;36281;34.132;-118.018;2023-06-22T01:30:12;99783.38;;;26.20;34.30
50368;BME280;36281;34.132;-118.018;2023-06-22T01:32:48;99786.25;;;26.15;34.63
50368;BME280;36281;34.132;-118.018;2023-06-22T01:35:19;99797.59;;;26.17;34.24
50368;BME280;36281;34.132;-118.018;2023-06-22T01:37:49;99788.00;;;26.20;34.20
50368;BME280;36281;34.132;-118.018;2023-06-22T01:40:20;99790.72;;;26.20;34.61
50368;BME280;36281;34.132;-118.018;2023-06-22T01:42:50;99782.91;;;26.18;34.33
50368;BME280;36281;34.132;-118.018;2023-06-22T01:45:22;99778.44;;;26.14;33.89
50368;BME280;36281;34.132;-118.018;2023-06-22T01:47:51;99777.13;;;25.94;34.76
50368;BME280;36281;34.132;-118.018;2023-06-22T01:50:25;99783.03;;;25.96;35.03
50368;BME280;36281;34.132;-118.018;2023-06-22T01:52:55;99786.03;;;25.86;34.94
50368;BME280;36281;34.132;-118.018;2023-06-22T01:55:24;99787.28;;;25.80;34.70
50368;BME280;36281;34.132;-118.018;2023-06-22T01:57:56;99790.06;;;25.66;35.18
50368;BME280;36281;34.132;-118.018;2023-06-22T02:00:29;99787.31;;;25.48;36.42
50368;BME280;36281;34.132;-118.018;2023-06-22T02:03:02;99789.69;;;25.50;36.07
50368;BME280;36281;34.132;-118.018;2023-06-22T02:05:36;99786.97;;;25.41;36.48
50368;BME280;36281;34.132;-118.018;2023-06-22T02:08:09;99791.56;;;25.41;36.10
50368;BME280;36281;34.132;-118.018;2023-06-22T02:10:40;99790.63;;;25.37;36.66
50368;BME280;36281;34.132;-118.018;2023-06-22T02:13:11;99795.06;;;25.33;36.36
50368;BME280;36281;34.132;-118.018;2023-06-22T02:15:44;99796.78;;;25.29;36.50
50368;BME280;36281;34.132;-118.018;2023-06-22T02:18:14;99804.50;;;25.13;36.82
50368;BME280;36281;34.132;-118.018;2023-06-22T02:20:43;99801.63;;;25.09;36.71
50368;BME280;36281;34.132;-118.018;2023-06-22T02:23:12;99806.16;;;25.00;36.89
50368;BME280;36281;34.132;-118.018;2023-06-22T02:25:42;99802.44;;;24.96;37.26
50368;BME280;36281;34.132;-118.018;2023-06-22T02:28:12;99811.03;;;24.89;37.42
50368;BME280;36281;34.132;-118.018;2023-06-22T02:30:43;99816.69;;;24.79;37.30
50368;BME280;36281;34.132;-118.018;2023-06-22T02:33:12;99826.53;;;24.75;37.81
50368;BME280;36281;34.132;-118.018;2023-06-22T02:35:41;99824.72;;;24.70;38.07
50368;BME280;36281;34.132;-118.018;2023-06-22T02:38:14;99823.84;;;24.61;37.87
50368;BME280;36281;34.132;-118.018;2023-06-22T02:40:43;99824.09;;;24.51;38.03
50368;BME280;36281;34.132;-118.018;2023-06-22T02:43:12;99828.81;;;24.45;38.36
50368;BME280;36281;34.132;-118.018;2023-06-22T02:45:43;99827.13;;;24.36;38.38
50368;BME280;36281;34.132;-118.018;2023-06-22T02:48:12;99826.72;;;24.29;38.47
50368;BME280;36281;34.132;-118.018;2023-06-22T02:50:42;99826.84;;;24.23;38.77
50368;BME280;36281;34.132;-118.018;2023-06-22T02:53:12;99834.56;;;24.16;38.88
50368;BME280;36281;34.132;-118.018;2023-06-22T02:55:42;99841.97;;;24.11;39.22
50368;BME280;36281;34.132;-118.018;2023-06-22T02:58:11;99835.38;;;24.03;39.43
50368;BME280;36281;34.132;-118.018;2023-06-22T03:00:42;99832.25;;;23.96;39.78
50368;BME280;36281;34.132;-118.018;2023-06-22T03:03:11;99828.66;;;23.87;39.88
50368;BME280;36281;34.132;-118.018;2023-06-22T03:05:40;99836.38;;;23.80;39.61
50368;BME280;36281;34.132;-118.018;2023-06-22T03:08:09;99837.38;;;23.70;39.93
50368;BME280;36281;34.132;-118.018;2023-06-22T03:10:41;99840.97;;;23.65;40.14
50368;BME280;36281;34.132;-118.018;2023-06-22T03:13:10;99841.34;;;23.59;40.11
50368;BME280;36281;34.132;-118.018;2023-06-22T03:15:39;99842.53;;;23.53;39.95
50368;BME280;36281;34.132;-118.018;2023-06-22T03:18:10;99847.81;;;23.44;39.91
50368;BME280;36281;34.132;-118.018;2023-06-22T03:20:39;99852.22;;;23.40;40.19
50368;BME280;36281;34.132;-118.018;2023-06-22T03:23:08;99853.72;;;23.32;40.54
50368;BME280;36281;34.132;-118.018;2023-06-22T03:25:37;99851.38;;;23.26;40.87
50368;BME280;36281;34.132;-118.018;2023-06-22T03:28:06;99847.75;;;23.16;41.11
50368;BME280;36281;34.132;-118.018;2023-06-22T03:30:35;99848.94;;;23.10;41.82
50368;BME280;36281;34.132;-118.018;2023-06-22T03:33:09;99865.00;;;23.02;42.24
50368;BME280;36281;34.132;-118.018;2023-06-22T03:35:40;99868.66;;;22.92;42.74
50368;BME280;36281;34.132;-118.018;2023-06-22T03:38:12;99872.28;;;22.82;43.78
50368;BME280;36281;34.132;-118.018;2023-06-22T03:40:41;99867.56;;;22.74;44.47
50368;BME280;36281;34.132;-118.018;2023-06-22T03:43:11;99876.31;;;22.66;45.04
50368;BME280;36281;34.132;-118.018;2023-06-22T03:45:40;99873.16;;;22.59;45.40
50368;BME280;36281;34.132;-118.018;2023-06-22T03:48:11;99882.13;;;22.54;46.37
50368;BME280;36281;34.132;-118.018;2023-06-22T03:50:41;99872.78;;;22.47;46.64
50368;BME280;36281;34.132;-118.018;2023-06-22T03:53:10;99882.84;;;22.41;47.02
50368;BME280;36281;34.132;-118.018;2023-06-22T03:55:47;99883.22;;;22.34;47.72
50368;BME280;36281;34.132;-118.018;2023-06-22T03:58:18;99872.25;;;22.26;47.94
50368;BME280;36281;34.132;-118.018;2023-06-22T04:00:48;99882.00;;;22.22;48.56
50368;BME280;36281;34.132;-118.018;2023-06-22T04:03:19;99887.44;;;22.16;49.18
50368;BME280;36281;34.132;-118.018;2023-06-22T04:05:49;99881.31;;;22.11;49.47
50368;BME280;36281;34.132;-118.018;2023-06-22T04:08:18;99882.69;;;22.08;49.97
50368;BME280;36281;34.132;-118.018;2023-06-22T04:10:47;99888.13;;;22.03;50.15
50368;BME280;36281;34.132;-118.018;2023-06-22T04:13:16;99885.25;;;21.94;50.47
50368;BME280;36281;34.132;-118.018;2023-06-22T04:15:45;99888.81;;;21.90;51.14
50368;BME280;36281;34.132;-118.018;2023-06-22T04:18:14;99894.25;;;21.85;50.70
50368;BME280;36281;34.132;-118.018;2023-06-22T04:20:45;99889.25;;;21.73;51.56
50368;BME280;36281;34.132;-118.018;2023-06-22T04:23:18;99888.47;;;21.67;51.63
50368;BME280;36281;34.132;-118.018;2023-06-22T04:25:47;99884.78;;;21.63;51.87
50368;BME280;36281;34.132;-118.018;2023-06-22T04:28:16;99885.63;;;21.59;51.98
50368;BME280;36281;34.132;-118.018;2023-06-22T04:30:45;99889.16;;;21.54;51.74
50368;BME280;36281;34.132;-118.018;2023-06-22T04:33:17;99891.66;;;21.46;51.72
50368;BME280;36281;34.132;-118.018;2023-06-22T04:35:48;99888.25;;;21.35;52.02
50368;BME280;36281;34.132;-118.018;2023-06-22T04:38:18;99888.81;;;21.32;52.75
50368;BME280;36281;34.132;-118.018;2023-06-22T04:40:50;99883.97;;;21.29;52.96
50368;BME280;36281;34.132;-118.018;2023-06-22T04:43:20;99884.28;;;21.22;53.13
50368;BME280;36281;34.132;-118.018;2023-06-22T04:45:49;99890.50;;;21.17;53.18
50368;BME280;36281;34.132;-118.018;2023-06-22T04:48:21;99888.69;;;21.08;53.21
50368;BME280;36281;34.132;-118.018;2023-06-22T04:50:51;99886.81;;;21.03;53.81
50368;BME280;36281;34.132;-118.018;2023-06-22T04:53:20;99887.16;;;20.97;54.00
50368;BME280;36281;34.132;-118.018;2023-06-22T04:55:49;99892.56;;;20.91;54.25
50368;BME280;36281;34.132;-118.018;2023-06-22T04:58:22;99893.69;;;20.85;54.73
50368;BME280;36281;34.132;-118.018;2023-06-22T05:00:51;99898.56;;;20.78;54.93
50368;BME280;36281;34.132;-118.018;2023-06-22T05:03:20;99903.75;;;20.70;55.25
50368;BME280;36281;34.132;-118.018;2023-06-22T05:05:54;99911.84;;;20.64;55.74
50368;BME280;36281;34.132;-118.018;2023-06-22T05:08:23;99906.50;;;20.59;56.07
50368;BME280;36281;34.132;-118.018;2023-06-22T05:10:55;99907.03;;;20.56;56.62
50368;BME280;36281;34.132;-118.018;2023-06-22T05:13:32;99892.81;;;20.46;56.79
50368;BME280;36281;34.132;-118.018;2023-06-22T05:16:01;99917.31;;;20.49;56.95
50368;BME280;36281;34.132;-118.018;2023-06-22T05:18:33;99916.75;;;20.47;57.36
50368;BME280;36281;34.132;-118.018;2023-06-22T05:21:05;99910.84;;;20.45;57.92
50368;BME280;36281;34.132;-118.018;2023-06-22T05:23:34;99908.69;;;20.42;58.32
50368;BME280;36281;34.132;-118.018;2023-06-22T05:26:06;99901.19;;;20.34;58.78
50368;BME280;36281;34.132;-118.018;2023-06-22T05:28:38;99903.06;;;20.28;59.31
50368;BME280;36281;34.132;-118.018;2023-06-22T05:31:07;99910.38;;;20.23;59.46
50368;BME280;36281;34.132;-118.018;2023-06-22T05:33:36;99909.88;;;20.16;59.68
50368;BME280;36281;34.132;-118.018;2023-06-22T05:36:09;99907.72;;;20.07;60.08
50368;BME280;36281;34.132;-118.018;2023-06-22T05:38:39;99908.03;;;20.01;60.31
50368;BME280;36281;34.132;-118.018;2023-06-22T05:41:08;99909.66;;;19.92;60.81
50368;BME280;36281;34.132;-118.018;2023-06-22T05:43:37;99906.97;;;19.81;61.22
50368;BME280;36281;34.132;-118.018;2023-06-22T05:46:07;99913.16;;;19.77;61.25
50368;BME280;36281;34.132;-118.018;2023-06-22T05:48:36;99920.72;;;19.70;61.32
50368;BME280;36281;34.132;-118.018;2023-06-22T05:51:07;99915.84;;;19.56;61.54
50368;BME280;36281;34.132;-118.018;2023-06-22T05:53:36;99918.00;;;19.54;62.15
50368;BME280;36281;34.132;-118.018;2023-06-22T05:56:05;99909.41;;;19.47;62.36
50368;BME280;36281;34.132;-118.018;2023-06-22T05:58:35;99921.75;;;19.53;62.38
50368;BME280;36281;34.132;-118.018;2023-06-22T06:01:05;99919.06;;;19.48;62.68
50368;BME280;36281;34.132;-118.018;2023-06-22T06:03:34;99920.66;;;19.44;63.19
50368;BME280;36281;34.132;-118.018;2023-06-22T06:06:11;99922.31;;;19.40;62.80
50368;BME280;36281;34.132;-118.018;2023-06-22T06:08:40;99919.63;;;19.35;63.19
50368;BME280;36281;34.132;-118.018;2023-06-22T06:11:09;99917.72;;;19.30;64.02
50368;BME280;36281;34.132;-118.018;2023-06-22T06:13:41;99918.53;;;19.26;64.36
50368;BME280;36281;34.132;-118.018;2023-06-22T06:16:10;99918.25;;;19.22;64.20
50368;BME280;36281;34.132;-118.018;2023-06-22T06:18:39;99917.97;;;19.19;64.14
50368;BME280;36281;34.132;-118.018;2023-06-22T06:21:10;99924.13;;;19.14;64.50
50368;BME280;36281;34.132;-118.018;2023-06-22T06:23:39;99923.34;;;19.08;64.93
50368;BME280;36281;34.132;-118.018;2023-06-22T06:26:08;99923.59;;;19.02;65.15
50368;BME280;36281;34.132;-118.018;2023-06-22T06:28:38;99918.50;;;18.90;65.43
50368;BME280;36281;34.132;-118.018;2023-06-22T06:31:07;99919.28;;;18.85;65.80
50368;BME280;36281;34.132;-118.018;2023-06-22T06:33:38;99914.94;;;18.74;66.45
50368;BME280;36281;34.132;-118.018;2023-06-22T06:36:07;99920.56;;;18.73;66.99
50368;BME280;36281;34.132;-118.018;2023-06-22T06:38:38;99917.84;;;18.68;67.46
50368;BME280;36281;34.132;-118.018;2023-06-22T06:41:07;99921.03;;;18.65;67.41
50368;BME280;36281;34.132;-118.018;2023-06-22T06:43:39;99922.91;;;18.59;67.55
50368;BME280;36281;34.132;-118.018;2023-06-22T06:46:08;99923.97;;;18.53;67.42
50368;BME280;36281;34.132;-118.018;2023-06-22T06:48:37;99923.97;;;18.53;67.19
50368;BME280;36281;34.132;-118.018;2023-06-22T06:51:06;99919.09;;;18.45;67.47
50368;BME280;36281;34.132;-118.018;2023-06-22T06:53:39;99918.03;;;18.41;67.52
50368;BME280;36281;34.132;-118.018;2023-06-22T06:56:12;99926.84;;;18.36;67.65
50368;BME280;36281;34.132;-118.018;2023-06-22T06:58:43;99924.66;;;18.28;67.49
50368;BME280;36281;34.132;-118.018;2023-06-22T07:01:13;99925.97;;;18.20;68.15
50368;BME280;36281;34.132;-118.018;2023-06-22T07:03:42;99922.19;;;18.16;68.34
50368;BME280;36281;34.132;-118.018;2023-06-22T07:06:12;99928.88;;;18.14;68.02
50368;BME280;36281;34.132;-118.018;2023-06-22T07:08:43;99932.59;;;18.07;68.79
50368;BME280;36281;34.132;-118.018;2023-06-22T07:11:12;99931.75;;;18.02;68.52
50368;BME280;36281;34.132;-118.018;2023-06-22T07:13:41;99922.91;;;18.01;68.36
50368;BME280;36281;34.132;-118.018;2023-06-22T07:16:11;99926.41;;;18.02;68.31
50368;BME280;36281;34.132;-118.018;2023-06-22T07:18:40;99920.44;;;17.95;68.94
50368;BME280;36281;34.132;-118.018;2023-06-22T07:21:09;99927.94;;;17.93;68.84
50368;BME280;36281;34.132;-118.018;2023-06-22T07:23:38;99923.94;;;17.90;69.04
50368;BME280;36281;34.132;-118.018;2023-06-22T07:26:09;99914.19;;;17.79;69.92
50368;BME280;36281;34.132;-118.018;2023-06-22T07:28:38;99925.22;;;17.82;69.25
50368;BME280;36281;34.132;-118.018;2023-06-22T07:31:09;99917.41;;;17.76;69.42
50368;BME280;36281;34.132;-118.018;2023-06-22T07:33:38;99918.91;;;17.67;69.26
50368;BME280;36281;34.132;-118.018;2023-06-22T07:36:07;99921.00;;;17.65;69.08
50368;BME280;36281;34.132;-118.018;2023-06-22T07:38:39;99920.19;;;17.59;69.57
50368;BME280;36281;34.132;-118.018;2023-06-22T07:41:10;99927.38;;;17.53;70.26
50368;BME280;36281;34.132;-118.018;2023-06-22T07:43:39;99926.81;;;17.51;70.73
50368;BME280;36281;34.132;-118.018;2023-06-22T07:46:08;99930.50;;;17.45;70.82
50368;BME280;36281;34.132;-118.018;2023-06-22T07:48:37;99919.22;;;17.38;70.03
50368;BME280;36281;34.132;-118.018;2023-06-22T07:51:07;99937.94;;;17.38;69.81
50368;BME280;36281;34.132;-118.018;2023-06-22T07:53:38;99931.75;;;17.33;70.17
50368;BME280;36281;34.132;-118.018;2023-06-22T07:56:11;99923.97;;;17.31;70.84
50368;BME280;36281;34.132;-118.018;2023-06-22T07:58:40;99937.38;;;17.31;71.38
50368;BME280;36281;34.132;-118.018;2023-06-22T08:01:09;99925.03;;;17.30;71.60
50368;BME280;36281;34.132;-118.018;2023-06-22T08:03:39;99918.06;;;17.29;71.02
50368;BME280;36281;34.132;-118.018;2023-06-22T08:06:08;99914.03;;;17.26;70.87
50368;BME280;36281;34.132;-118.018;2023-06-22T08:08:38;99914.28;;;17.25;70.53
50368;BME280;36281;34.132;-118.018;2023-06-22T08:11:07;99915.25;;;17.14;70.57
50368;BME280;36281;34.132;-118.018;2023-06-22T08:13:37;99902.38;;;17.11;70.43
50368;BME280;36281;34.132;-118.018;2023-06-22T08:16:09;99901.81;;;17.09;70.83
50368;BME280;36281;34.132;-118.018;2023-06-22T08:18:38;99911.19;;;17.06;71.08
50368;BME280;36281;34.132;-118.018;2023-06-22T08:21:08;99904.13;;;17.00;70.85
50368;BME280;36281;34.132;-118.018;2023-06-22T08:23:39;99905.78;;;17.01;71.43
50368;BME280;36281;34.132;-118.018;2023-06-22T08:26:10;99903.06;;;16.96;71.44
50368;BME280;36281;34.132;-118.018;2023-06-22T08:28:41;99899.69;;;16.84;71.50
50368;BME280;36281;34.132;-118.018;2023-06-22T08:31:10;99890.88;;;16.83;71.53
50368;BME280;36281;34.132;-118.018;2023-06-22T08:33:41;99898.09;;;16.83;71.43
50368;BME280;36281;34.132;-118.018;2023-06-22T08:36:16;99893.97;;;16.75;71.45
50368;BME280;36281;34.132;-118.018;2023-06-22T08:38:45;99888.00;;;16.68;72.01
50368;BME280;36281;34.132;-118.018;2023-06-22T08:41:18;99900.81;;;16.66;71.88
50368;BME280;36281;34.132;-118.018;2023-06-22T08:43:52;99895.41;;;16.61;71.99
50368;BME280;36281;34.132;-118.018;2023-06-22T08:46:21;99890.56;;;16.58;71.66
50368;BME280;36281;34.132;-118.018;2023-06-22T08:48:53;99892.44;;;16.57;71.86
50368;BME280;36281;34.132;-118.018;2023-06-22T08:51:22;99892.94;;;16.54;72.29
50368;BME280;36281;34.132;-118.018;2023-06-22T08:53:51;99894.47;;;16.50;72.84
50368;BME280;36281;34.132;-118.018;2023-06-22T08:56:20;99896.53;;;16.43;73.05
50368;BME280;36281;34.132;-118.018;2023-06-22T08:58:54;99889.81;;;16.40;73.47
50368;BME280;36281;34.132;-118.018;2023-06-22T09:01:27;99886.59;;;16.38;74.05
50368;BME280;36281;34.132;-118.018;2023-06-22T09:03:56;99889.53;;;16.37;74.19
50368;BME280;36281;34.132;-118.018;2023-06-22T09:06:27;99888.72;;;16.36;74.29
50368;BME280;36281;34.132;-118.018;2023-06-22T09:08:56;99887.59;;;16.32;74.00
50368;BME280;36281;34.132;-118.018;2023-06-22T09:11:28;99895.03;;;16.30;74.01
50368;BME280;36281;34.132;-118.018;2023-06-22T09:14:01;99900.66;;;16.28;73.76
50368;BME280;36281;34.132;-118.018;2023-06-22T09:16:32;99897.44;;;16.26;73.99
50368;BME280;36281;34.132;-118.018;2023-06-22T09:19:01;99906.72;;;16.24;74.50
50368;BME280;36281;34.132;-118.018;2023-06-22T09:21:30;99913.13;;;16.23;74.18
50368;BME280;36281;34.132;-118.018;2023-06-22T09:24:01;99906.41;;;16.20;74.10
50368;BME280;36281;34.132;-118.018;2023-06-22T09:26:30;99920.03;;;16.19;74.21
50368;BME280;36281;34.132;-118.018;2023-06-22T09:29:01;99916.81;;;16.17;74.71
50368;BME280;36281;34.132;-118.018;2023-06-22T09:31:36;99910.34;;;16.13;74.50
50368;BME280;36281;34.132;-118.018;2023-06-22T09:34:05;99908.72;;;16.12;74.33
50368;BME280;36281;34.132;-118.018;2023-06-22T09:36:34;99911.13;;;16.13;74.41
50368;BME280;36281;34.132;-118.018;2023-06-22T09:39:03;99901.44;;;16.07;74.48
50368;BME280;36281;34.132;-118.018;2023-06-22T09:41:37;99911.25;;;16.01;74.40
50368;BME280;36281;34.132;-118.018;2023-06-22T09:44:07;99911.47;;;16.00;74.07
50368;BME280;36281;34.132;-118.018;2023-06-22T09:46:37;99900.19;;;15.93;74.32
50368;BME280;36281;34.132;-118.018;2023-06-22T09:49:06;99909.25;;;15.92;74.51
50368;BME280;36281;34.132;-118.018;2023-06-22T09:51:35;99899.84;;;15.89;74.91
50368;BME280;36281;34.132;-118.018;2023-06-22T09:54:06;99905.19;;;15.89;75.25
50368;BME280;36281;34.132;-118.018;2023-06-22T09:56:35;99880.75;;;15.81;75.16
50368;BME280;36281;34.132;-118.018;2023-06-22T09:59:07;99889.66;;;15.86;75.71
50368;BME280;36281;34.132;-118.018;2023-06-22T10:01:45;99898.66;;;15.80;76.12
50368;BME280;36281;34.132;-118.018;2023-06-22T10:04:14;99896.41;;;15.72;76.73
50368;BME280;36281;34.132;-118.018;2023-06-22T10:06:46;99893.75;;;15.72;76.22
50368;BME280;36281;34.132;-118.018;2023-06-22T10:09:16;99901.50;;;15.73;75.75
50368;BME280;36281;34.132;-118.018;2023-06-22T10:11:45;99903.91;;;15.75;75.76
50368;BME280;36281;34.132;-118.018;2023-06-22T10:14:15;99903.44;;;15.78;75.60
50368;BME280;36281;34.132;-118.018;2023-06-22T10:16:45;99894.53;;;15.72;75.43
50368;BME280;36281;34.132;-118.018;2023-06-22T10:19:16;99907.50;;;15.64;75.40
50368;BME280;36281;34.132;-118.018;2023-06-22T10:21:45;99907.72;;;15.62;75.73
50368;BME280;36281;34.132;-118.018;2023-06-22T10:24:15;99908.50;;;15.63;75.58
50368;BME280;36281;34.132;-118.018;2023-06-22T10:26:47;99909.09;;;15.65;75.84
50368;BME280;36281;34.132;-118.018;2023-06-22T10:29:17;99914.44;;;15.65;76.11
50368;BME280;36281;34.132;-118.018;2023-06-22T10:31:46;99906.22;;;15.66;75.91
50368;BME280;36281;34.132;-118.018;2023-06-22T10:34:16;99899.47;;;15.64;75.90
50368;BME280;36281;34.132;-118.018;2023-06-22T10:36:45;99901.34;;;15.63;76.08
50368;BME280;36281;34.132;-118.018;2023-06-22T10:39:17;99889.50;;;15.59;76.65
50368;BME280;36281;34.132;-118.018;2023-06-22T10:41:48;99892.41;;;15.58;76.46
50368;BME280;36281;34.132;-118.018;2023-06-22T10:44:19;99894.69;;;15.49;76.55
50368;BME280;36281;34.132;-118.018;2023-06-22T10:46:49;99893.88;;;15.48;76.48
50368;BME280;36281;34.132;-118.018;2023-06-22T10:49:18;99900.28;;;15.47;76.34
50368;BME280;36281;34.132;-118.018;2023-06-22T10:51:47;99902.28;;;15.40;76.25
50368;BME280;36281;34.132;-118.018;2023-06-22T10:54:16;99889.34;;;15.32;76.19
50368;BME280;36281;34.132;-118.018;2023-06-22T10:56:47;99890.63;;;15.30;76.36
50368;BME280;36281;34.132;-118.018;2023-06-22T10:59:18;99886.59;;;15.27;76.69
50368;BME280;36281;34.132;-118.018;2023-06-22T11:01:49;99890.28;;;15.26;76.30
50368;BME280;36281;34.132;-118.018;2023-06-22T11:04:18;99885.47;;;15.23;76.24
50368;BME280;36281;34.132;-118.018;2023-06-22T11:06:48;99877.38;;;15.18;76.74
50368;BME280;36281;34.132;-118.018;2023-06-22T11:09:18;99875.75;;;15.17;77.07
50368;BME280;36281;34.132;-118.018;2023-06-22T11:11:56;99884.16;;;15.09;77.44
50368;BME280;36281;34.132;-118.018;2023-06-22T11:14:29;99878.72;;;15.04;77.47
50368;BME280;36281;34.132;-118.018;2023-06-22T11:16:58;99882.66;;;15.01;77.67
50368;BME280;36281;34.132;-118.018;2023-06-22T11:19:28;99882.91;;;14.99;77.26
50368;BME280;36281;34.132;-118.018;2023-06-22T11:21:57;99884.44;;;14.95;77.66
50368;BME280;36281;34.132;-118.018;2023-06-22T11:24:26;99884.34;;;14.90;77.59
50368;BME280;36281;34.132;-118.018;2023-06-22T11:26:55;99881.84;;;14.84;77.68
50368;BME280;36281;34.132;-118.018;2023-06-22T11:29:26;99874.09;;;14.82;77.53
50368;BME280;36281;34.132;-118.018;2023-06-22T11:32:09;99891.69;;;14.83;77.79
50368;BME280;36281;34.132;-118.018;2023-06-22T11:34:41;99901.56;;;14.83;77.89
50368;BME280;36281;34.132;-118.018;2023-06-22T11:37:10;99888.94;;;14.78;78.42
50368;BME280;36281;34.132;-118.018;2023-06-22T11:39:39;99899.09;;;14.81;78.39
50368;BME280;36281;34.132;-118.018;2023-06-22T11:42:19;99895.53;;;14.76;78.90
50368;BME280;36281;34.132;-118.018;2023-06-22T11:44:48;99894.41;;;14.71;79.49
50368;BME280;36281;34.132;-118.018;2023-06-22T11:47:19;99898.47;;;14.74;79.69
50368;BME280;36281;34.132;-118.018;2023-06-22T11:49:49;99897.66;;;14.73;79.21
50368;BME280;36281;34.132;-118.018;2023-06-22T11:52:18;99894.66;;;14.70;79.15
50368;BME280;36281;34.132;-118.018;2023-06-22T11:54:47;99890.38;;;14.69;79.32
50368;BME280;36281;34.132;-118.018;2023-06-22T11:57:19;99888.75;;;14.68;79.25
50368;BME280;36281;34.132;-118.018;2023-06-22T11:59:48;99885.50;;;14.66;79.07
50368;BME280;36281;34.132;-118.018;2023-06-22T12:02:19;99895.84;;;14.62;79.25
50368;BME280;36281;34.132;-118.018;2023-06-22T12:04:48;99910.44;;;14.60;79.57
50368;BME280;36281;34.132;-118.018;2023-06-22T12:07:21;99910.59;;;14.53;79.81
50368;BME280;36281;34.132;-118.018;2023-06-22T12:09:50;99907.56;;;14.50;80.05
50368;BME280;36281;34.132;-118.018;2023-06-22T12:12:19;99909.69;;;14.47;79.92
50368;BME280;36281;34.132;-118.018;2023-06-22T12:14:48;99910.66;;;14.46;79.54
50368;BME280;36281;34.132;-118.018;2023-06-22T12:17:19;99914.88;;;14.42;79.56
50368;BME280;36281;34.132;-118.018;2023-06-22T12:19:48;99918.34;;;14.43;79.52
50368;BME280;36281;34.132;-118.018;2023-06-22T12:22:18;99923.09;;;14.41;79.83
50368;BME280;36281;34.132;-118.018;2023-06-22T12:24:47;99917.53;;;14.42;80.06
50368;BME280;36281;34.132;-118.018;2023-06-22T12:27:17;99919.72;;;14.45;80.55
50368;BME280;36281;34.132;-118.018;2023-06-22T12:29:46;99915.44;;;14.44;80.80
50368;BME280;36281;34.132;-118.018;2023-06-22T12:32:16;99922.38;;;14.45;81.25
50368;BME280;36281;34.132;-118.018;2023-06-22T12:34:46;99925.66;;;14.47;81.38
50368;BME280;36281;34.132;-118.018;2023-06-22T12:37:16;99926.78;;;14.52;81.28
50368;BME280;36281;34.132;-118.018;2023-06-22T12:39:45;99923.09;;;14.53;81.08
50368;BME280;36281;34.132;-118.018;2023-06-22T12:42:15;99915.44;;;14.56;81.28
50368;BME280;36281;34.132;-118.018;2023-06-22T12:44:44;99909.16;;;14.62;81.32
50368;BME280;36281;34.132;-118.018;2023-06-22T12:47:13;99912.66;;;14.63;81.62